Friday, October 19, 2018, 7:11 AM EDT
Back to Local

KSMQ, Somerville Somerset Airport

Location: Bedminster, NJ, United States Lat: 40.617
Local Time: 7:11 AM EDT (11:11 GMT) Lon: -74.667
Time Zone: US/Eastern Elev: 104 ft

Show me the last for .
Show Decoded

2018-10-19 06:53 METAR KSMQ 191053Z AUTO 00000KT 10SM CLR M02/M02 A3031 RMK AO2 SLP265 I1000
                 T10171022 =
2018-10-19 05:53 METAR KSMQ 190953Z AUTO 00000KT 10SM CLR M01/M02 A3031 RMK AO2 SLP266 I1000
                 T10111022 =
2018-10-19 04:53 METAR KSMQ 190853Z AUTO 00000KT 10SM CLR M01/M02 A3031 RMK AO2 SLP265 I1000
                 I3001 T10111017 57007 =
2018-10-19 03:53 METAR KSMQ 190753Z AUTO 00000KT 10SM CLR M01/M01 A3032 RMK AO2 SLP267 I1000
                 T10111011 =
2018-10-19 02:53 METAR KSMQ 190653Z AUTO 00000KT 10SM CLR 00/M01 A3033 RMK AO2 SLP270 I1001
                 T00001006 =
2018-10-19 01:53 METAR KSMQ 190553Z AUTO 00000KT 10SM CLR 00/M01 A3033 RMK AO2 SLP272 T00001006
                 10044 21006 58005 =
2018-10-19 00:53 METAR KSMQ 190453Z AUTO 00000KT 10SM CLR 01/00 A3034 RMK AO2 SLP274 T00060000
                 401170006 =
2018-10-18 23:53 METAR KSMQ 190353Z AUTO 00000KT 10SM CLR 01/01 A3035 RMK AO2 SLP278 T00110006 =
2018-10-18 22:53 METAR KSMQ 190253Z AUTO 00000KT 10SM CLR 01/00 A3035 RMK AO2 SLP278 T00110000
                 52004 =
2018-10-18 21:53 METAR KSMQ 190153Z AUTO 00000KT 10SM CLR 02/01 A3034 RMK AO2 SLP277 T00170006 =
2018-10-18 20:53 METAR KSMQ 190053Z AUTO 00000KT 10SM CLR 03/01 A3034 RMK AO2 SLP275 T00330006 =
2018-10-18 19:53 METAR KSMQ 182353Z AUTO 00000KT 10SM CLR 04/00 A3034 RMK AO2 SLP274 T00440000
                 10117 20039 51008 =
2018-10-18 18:53 METAR KSMQ 182253Z AUTO 00000KT 10SM CLR 07/M01 A3033 RMK AO2 SLP273 T00671006 =
2018-10-18 17:53 METAR KSMQ 182153Z AUTO VRB03KT 10SM CLR 09/M04 A3032 RMK AO2 SLP269 T00941039 =
2018-10-18 16:53 METAR KSMQ 182053Z AUTO 30008G14KT 10SM CLR 11/M06 A3031 RMK AO2 SLP265
                 T01111061 56009 =
2018-10-18 15:53 METAR KSMQ 181953Z AUTO 29009G14KT 10SM CLR 11/M06 A3031 RMK AO2 SLP266
                 T01111061 =
2018-10-18 14:53 METAR KSMQ 181853Z AUTO VRB05KT 10SM CLR 11/M06 A3032 RMK AO2 SLP268 T01111061 =
2018-10-18 13:53 METAR KSMQ 181753Z AUTO 30010G18KT 10SM CLR 11/M07 A3034 RMK AO2 SLP274
                 T01061072 10106 20050 58007 =
2018-10-18 12:53 METAR KSMQ 181653Z AUTO 30010G16KT 250V320 10SM CLR 10/M06 A3035 RMK AO2 SLP278
                 T01001061 =
2018-10-18 11:53 METAR KSMQ 181553Z AUTO 32012G21KT 10SM CLR 09/M07 A3036 RMK AO2 SLP281
                 T00891067 =
2018-10-18 10:53 METAR KSMQ 181453Z AUTO 34016G23KT 10SM CLR 08/M07 A3036 RMK AO2 SLP282
                 T00781067 50014 =
2018-10-18 09:53 METAR KSMQ 181353Z AUTO 32010G15KT 10SM FEW060 07/M06 A3037 RMK AO2 SLP284
                 T00721056 =
2018-10-18 08:53 METAR KSMQ 181253Z AUTO 34007KT 10SM CLR 06/M04 A3034 RMK AO2 SLP276 T00611044 =
2018-10-18 07:53 METAR KSMQ 181153Z AUTO 33008KT 10SM SCT060 05/M02 A3032 RMK AO2 SLP268
                 T00501022 10072 20039 53032 =

Support USWX by starting your Amazon purchase here.